RJA917 OJAI-ORBI
Flight info
| Callsign | RJA917 |
|---|---|
| Flight time | 1h 8m |
| Altitude | 37000 |
| Route | LOSA1Y LOSAR Z611 ASLON A412 DAXEN L200 SILBO DCT BGD DCT |
| Aircraft | A320/M-SDE3FGHIRWY/LB1 |
Departure
| Time | 2026-04-29 02:35 |
|---|---|
| Airport | Queen Alia International Airport (OJAI) |
Arrival
| Time | 2026-04-29 03:44 |
|---|---|
| Airport | Baghdad International Airport / New Al Muthana Air Base (ORBI) |
| Time | Latitude | Longitude | Altitude | Speed | Heading |
|---|---|---|---|---|---|
| 2026-04-29 01:50 | 31.72030 | 35.98655 | 2418 ft | 0 kts | 349° |
| 2026-04-29 02:25 | 31.72004 | 35.98661 | 2418 ft | 2 kts | 347° |
| 2026-04-29 02:25 | 31.71988 | 35.98665 | 2416 ft | 2 kts | 344° |
| 2026-04-29 02:25 | 31.71972 | 35.98671 | 2416 ft | 2 kts | 322° |
| 2026-04-29 02:25 | 31.71966 | 35.98687 | 2416 ft | 2 kts | 257° |
| 2026-04-29 02:26 | 31.71970 | 35.98706 | 2418 ft | 2 kts | 261° |
| 2026-04-29 02:26 | 31.71972 | 35.98724 | 2417 ft | 1 kts | 259° |
| 2026-04-29 02:26 | 31.71972 | 35.98726 | 2417 ft | 0 kts | 259° |
| 2026-04-29 02:28 | 31.71972 | 35.98725 | 2417 ft | 0 kts | 259° |
| 2026-04-29 02:28 | 31.71971 | 35.98719 | 2417 ft | 1 kts | 259° |
| 2026-04-29 02:29 | 31.71970 | 35.98711 | 2418 ft | 1 kts | 261° |
| 2026-04-29 02:29 | 31.71968 | 35.98698 | 2417 ft | 6 kts | 261° |
| 2026-04-29 02:29 | 31.71944 | 35.98604 | 2418 ft | 14 kts | 219° |
| 2026-04-29 02:29 | 31.71865 | 35.98603 | 2418 ft | 9 kts | 188° |
| 2026-04-29 02:30 | 31.71799 | 35.98588 | 2418 ft | 15 kts | 227° |
| 2026-04-29 02:30 | 31.71770 | 35.98444 | 2418 ft | 19 kts | 264° |
| 2026-04-29 02:30 | 31.71749 | 35.98290 | 2418 ft | 19 kts | 259° |
| 2026-04-29 02:30 | 31.71727 | 35.98135 | 2417 ft | 19 kts | 262° |
| 2026-04-29 02:31 | 31.71724 | 35.98112 | 2418 ft | 3 kts | 262° |
| 2026-04-29 02:31 | 31.71704 | 35.98044 | 2417 ft | 13 kts | 226° |
| 2026-04-29 02:31 | 31.71607 | 35.98043 | 2418 ft | 10 kts | 171° |
| 2026-04-29 02:31 | 31.71588 | 35.98047 | 2418 ft | 0 kts | 171° |
| 2026-04-29 02:32 | 31.71572 | 35.98050 | 2418 ft | 5 kts | 171° |
| 2026-04-29 02:32 | 31.71519 | 35.98060 | 2417 ft | 10 kts | 171° |
| 2026-04-29 02:32 | 31.71453 | 35.98094 | 2417 ft | 9 kts | 127° |
| 2026-04-29 02:33 | 31.71450 | 35.98143 | 2417 ft | 0 kts | 80° |
| 2026-04-29 02:34 | 31.71450 | 35.98144 | 2417 ft | 0 kts | 80° |
| 2026-04-29 02:34 | 31.71450 | 35.98145 | 2417 ft | 1 kts | 80° |
| 2026-04-29 02:34 | 31.71452 | 35.98154 | 2417 ft | 0 kts | 80° |
| 2026-04-29 02:34 | 31.71473 | 35.98296 | 2417 ft | 50 kts | 80° |
| 2026-04-29 02:35 | 31.71569 | 35.98950 | 2417 ft | 110 kts | 79° |
| 2026-04-29 02:35 | 31.71726 | 36.00017 | 2420 ft | 154 kts | 80° |
| 2026-04-29 02:35 | 31.71938 | 36.01395 | 2496 ft | 185 kts | 79° |
| 2026-04-29 02:35 | 31.72147 | 36.02948 | 3049 ft | 191 kts | 80° |
| 2026-04-29 02:36 | 31.72363 | 36.04464 | 3751 ft | 190 kts | 78° |
| 2026-04-29 02:36 | 31.72588 | 36.05983 | 4327 ft | 189 kts | 77° |
| 2026-04-29 02:36 | 31.72842 | 36.07614 | 4556 ft | 212 kts | 76° |
| 2026-04-29 02:36 | 31.73374 | 36.09304 | 4762 ft | 233 kts | 55° |
| 2026-04-29 02:37 | 31.74481 | 36.10789 | 5052 ft | 253 kts | 35° |
| 2026-04-29 02:37 | 31.76079 | 36.11763 | 5547 ft | 265 kts | 14° |
| 2026-04-29 02:37 | 31.77881 | 36.12295 | 6325 ft | 269 kts | 12° |
| 2026-04-29 02:37 | 31.79719 | 36.12786 | 7091 ft | 272 kts | 6° |
| 2026-04-29 02:38 | 31.81618 | 36.12829 | 7834 ft | 275 kts | 352° |
| 2026-04-29 02:38 | 31.83493 | 36.12327 | 8577 ft | 278 kts | 342° |
| 2026-04-29 02:38 | 31.85369 | 36.11693 | 9334 ft | 283 kts | 342° |
| 2026-04-29 02:38 | 31.87275 | 36.11055 | 10059 ft | 287 kts | 342° |
| 2026-04-29 02:39 | 31.89208 | 36.10409 | 10736 ft | 290 kts | 342° |
| 2026-04-29 02:39 | 31.91161 | 36.09758 | 11437 ft | 293 kts | 342° |
| 2026-04-29 02:39 | 31.93136 | 36.09100 | 12126 ft | 296 kts | 342° |
| 2026-04-29 02:39 | 31.95133 | 36.08456 | 12813 ft | 300 kts | 346° |
| 2026-04-29 02:40 | 31.97237 | 36.08404 | 13457 ft | 309 kts | 8° |
| 2026-04-29 02:40 | 31.99243 | 36.09356 | 14071 ft | 318 kts | 31° |
| 2026-04-29 02:40 | 32.01026 | 36.10931 | 14645 ft | 323 kts | 40° |
| 2026-04-29 02:40 | 32.02518 | 36.12940 | 15166 ft | 332 kts | 54° |
| 2026-04-29 02:41 | 32.03635 | 36.15423 | 15287 ft | 353 kts | 66° |
| 2026-04-29 02:41 | 32.04646 | 36.18186 | 15414 ft | 371 kts | 65° |
| 2026-04-29 02:41 | 32.05702 | 36.21031 | 15654 ft | 384 kts | 65° |
| 2026-04-29 02:41 | 32.06790 | 36.23932 | 16107 ft | 389 kts | 65° |
| 2026-04-29 02:42 | 32.07894 | 36.26859 | 16611 ft | 393 kts | 65° |
| 2026-04-29 02:42 | 32.09013 | 36.29822 | 17121 ft | 397 kts | 65° |
| 2026-04-29 02:42 | 32.10140 | 36.32811 | 17639 ft | 400 kts | 65° |
| 2026-04-29 02:42 | 32.11271 | 36.35823 | 18155 ft | 404 kts | 65° |
| 2026-04-29 02:43 | 32.12412 | 36.38870 | 18633 ft | 407 kts | 65° |
| 2026-04-29 02:43 | 32.13556 | 36.41937 | 19131 ft | 410 kts | 65° |
| 2026-04-29 02:43 | 32.14709 | 36.45029 | 19616 ft | 413 kts | 65° |
| 2026-04-29 02:43 | 32.15710 | 36.48209 | 20077 ft | 417 kts | 74° |
| 2026-04-29 02:44 | 32.16274 | 36.51581 | 20522 ft | 420 kts | 82° |
| 2026-04-29 02:44 | 32.16679 | 36.55012 | 20953 ft | 424 kts | 82° |
| 2026-04-29 02:44 | 32.17089 | 36.58468 | 21392 ft | 427 kts | 82° |
| 2026-04-29 02:44 | 32.17507 | 36.61949 | 21824 ft | 430 kts | 82° |
| 2026-04-29 02:45 | 32.17929 | 36.65448 | 22249 ft | 432 kts | 82° |
| 2026-04-29 02:45 | 32.18354 | 36.68970 | 22669 ft | 435 kts | 82° |
| 2026-04-29 02:45 | 32.18784 | 36.72518 | 23089 ft | 438 kts | 82° |
| 2026-04-29 02:45 | 32.19212 | 36.76089 | 23493 ft | 441 kts | 82° |
| 2026-04-29 02:46 | 32.19643 | 36.79685 | 23834 ft | 444 kts | 81° |
| 2026-04-29 02:46 | 32.20352 | 36.83235 | 24197 ft | 446 kts | 71° |
| 2026-04-29 02:46 | 32.21547 | 36.86614 | 24543 ft | 447 kts | 61° |
| 2026-04-29 02:46 | 32.23196 | 36.89715 | 24900 ft | 446 kts | 51° |
| 2026-04-29 02:47 | 32.25116 | 36.92606 | 25247 ft | 448 kts | 50° |
| 2026-04-29 02:47 | 32.27044 | 36.95507 | 25597 ft | 450 kts | 50° |
| 2026-04-29 02:47 | 32.28972 | 36.98425 | 25937 ft | 452 kts | 50° |
| 2026-04-29 02:47 | 32.30905 | 37.01367 | 26246 ft | 454 kts | 50° |
| 2026-04-29 02:48 | 32.32844 | 37.04330 | 26552 ft | 457 kts | 51° |
| 2026-04-29 02:48 | 32.34789 | 37.07310 | 26884 ft | 459 kts | 51° |
| 2026-04-29 02:48 | 32.36107 | 37.09333 | 27109 ft | 460 kts | 51° |
| 2026-04-29 02:48 | 32.38067 | 37.12337 | 27446 ft | 462 kts | 51° |
| 2026-04-29 02:49 | 32.40041 | 37.15356 | 27779 ft | 464 kts | 51° |
| 2026-04-29 02:49 | 32.42024 | 37.18387 | 28110 ft | 467 kts | 51° |
| 2026-04-29 02:49 | 32.44014 | 37.21427 | 28447 ft | 468 kts | 51° |
| 2026-04-29 02:49 | 32.46007 | 37.24472 | 28899 ft | 467 kts | 51° |
| 2026-04-29 02:50 | 32.47999 | 37.27520 | 29338 ft | 467 kts | 51° |
| 2026-04-29 02:50 | 32.49981 | 37.30558 | 29833 ft | 466 kts | 51° |
| 2026-04-29 02:50 | 32.51958 | 37.33592 | 30276 ft | 465 kts | 51° |
| 2026-04-29 02:50 | 32.53934 | 37.36628 | 30632 ft | 465 kts | 51° |
| 2026-04-29 02:51 | 32.55911 | 37.39664 | 30957 ft | 466 kts | 51° |
| 2026-04-29 02:51 | 32.57896 | 37.42716 | 31287 ft | 468 kts | 51° |
| 2026-04-29 02:51 | 32.59882 | 37.45773 | 31598 ft | 469 kts | 51° |
| 2026-04-29 02:51 | 32.61874 | 37.48847 | 31887 ft | 471 kts | 51° |
| 2026-04-29 02:52 | 32.63875 | 37.51939 | 32205 ft | 473 kts | 51° |
| 2026-04-29 02:52 | 32.65878 | 37.55029 | 32548 ft | 473 kts | 51° |
| 2026-04-29 02:52 | 32.67891 | 37.58131 | 32867 ft | 474 kts | 51° |
| 2026-04-29 02:52 | 32.69902 | 37.61237 | 33203 ft | 476 kts | 51° |
| 2026-04-29 02:53 | 32.71918 | 37.64357 | 33524 ft | 477 kts | 51° |
| 2026-04-29 02:53 | 32.73832 | 37.67578 | 33836 ft | 479 kts | 59° |
| 2026-04-29 02:53 | 32.75327 | 37.71124 | 34101 ft | 481 kts | 69° |
| 2026-04-29 02:53 | 32.76450 | 37.74869 | 34311 ft | 482 kts | 71° |
| 2026-04-29 02:54 | 32.77566 | 37.78686 | 34540 ft | 484 kts | 71° |
| 2026-04-29 02:54 | 32.78673 | 37.82468 | 34774 ft | 485 kts | 71° |
| 2026-04-29 02:54 | 32.79785 | 37.86262 | 35007 ft | 486 kts | 71° |
| 2026-04-29 02:54 | 32.80889 | 37.90057 | 35236 ft | 487 kts | 72° |
| 2026-04-29 02:55 | 32.81981 | 37.93870 | 35464 ft | 488 kts | 72° |
| 2026-04-29 02:55 | 32.83065 | 37.97696 | 35643 ft | 489 kts | 72° |
| 2026-04-29 02:55 | 32.84145 | 38.01544 | 35803 ft | 492 kts | 72° |
| 2026-04-29 02:55 | 32.85222 | 38.05404 | 36020 ft | 493 kts | 72° |
| 2026-04-29 02:56 | 32.86304 | 38.09272 | 36291 ft | 492 kts | 72° |
| 2026-04-29 02:56 | 32.87397 | 38.13134 | 36533 ft | 492 kts | 72° |
| 2026-04-29 02:56 | 32.88498 | 38.16987 | 36758 ft | 493 kts | 72° |
| 2026-04-29 02:56 | 32.89606 | 38.20852 | 36930 ft | 494 kts | 72° |
| 2026-04-29 02:57 | 32.90719 | 38.24729 | 37003 ft | 498 kts | 72° |
| 2026-04-29 02:57 | 32.92969 | 38.32620 | 37003 ft | 509 kts | 72° |
| 2026-04-29 02:58 | 32.95238 | 38.40641 | 37000 ft | 511 kts | 72° |
| 2026-04-29 02:58 | 32.97497 | 38.48643 | 36993 ft | 509 kts | 72° |
| 2026-04-29 02:59 | 32.99752 | 38.56639 | 37007 ft | 509 kts | 72° |
| 2026-04-29 02:59 | 33.02003 | 38.64647 | 36999 ft | 510 kts | 72° |
| 2026-04-29 03:00 | 33.04257 | 38.72727 | 37004 ft | 511 kts | 72° |
| 2026-04-29 03:00 | 33.06499 | 38.80771 | 37020 ft | 511 kts | 72° |
| 2026-04-29 03:01 | 33.08738 | 38.88818 | 37020 ft | 511 kts | 73° |
| 2026-04-29 03:01 | 33.09999 | 38.97098 | 36992 ft | 506 kts | 92° |
| 2026-04-29 03:02 | 33.10006 | 39.05476 | 36991 ft | 506 kts | 93° |
| 2026-04-29 03:02 | 33.10008 | 39.13875 | 37005 ft | 507 kts | 93° |
| 2026-04-29 03:03 | 33.10011 | 39.22285 | 37010 ft | 507 kts | 93° |
| 2026-04-29 03:03 | 33.10015 | 39.30692 | 37006 ft | 507 kts | 93° |
| 2026-04-29 03:04 | 33.10003 | 39.39101 | 36982 ft | 507 kts | 94° |
| 2026-04-29 03:04 | 33.09981 | 39.47522 | 36986 ft | 508 kts | 94° |
| 2026-04-29 03:05 | 33.09953 | 39.55963 | 36990 ft | 509 kts | 94° |
| 2026-04-29 03:05 | 33.09919 | 39.64409 | 36975 ft | 510 kts | 94° |
| 2026-04-29 03:06 | 33.09879 | 39.72927 | 37002 ft | 510 kts | 94° |
| 2026-04-29 03:06 | 33.09840 | 39.81389 | 36984 ft | 510 kts | 94° |
| 2026-04-29 03:07 | 33.09789 | 39.89857 | 36981 ft | 511 kts | 94° |
| 2026-04-29 03:07 | 33.09734 | 39.98327 | 36984 ft | 511 kts | 94° |
| 2026-04-29 03:08 | 33.09681 | 40.06810 | 36969 ft | 512 kts | 95° |
| 2026-04-29 03:08 | 33.09615 | 40.15305 | 36966 ft | 513 kts | 95° |
| 2026-04-29 03:09 | 33.09539 | 40.23814 | 36992 ft | 513 kts | 95° |
| 2026-04-29 03:09 | 33.09463 | 40.32325 | 36973 ft | 513 kts | 95° |
| 2026-04-29 03:10 | 33.09376 | 40.40836 | 36976 ft | 514 kts | 95° |
| 2026-04-29 03:10 | 33.09287 | 40.49358 | 36947 ft | 514 kts | 95° |
| 2026-04-29 03:11 | 33.09187 | 40.57890 | 36946 ft | 515 kts | 95° |
| 2026-04-29 03:11 | 33.09085 | 40.66432 | 36954 ft | 516 kts | 95° |
| 2026-04-29 03:12 | 33.08975 | 40.74991 | 36958 ft | 516 kts | 95° |
| 2026-04-29 03:12 | 33.08860 | 40.83555 | 36964 ft | 516 kts | 95° |
| 2026-04-29 03:13 | 33.08741 | 40.92114 | 36946 ft | 517 kts | 96° |
| 2026-04-29 03:13 | 33.08613 | 41.00687 | 36947 ft | 517 kts | 96° |
| 2026-04-29 03:14 | 33.08481 | 41.09325 | 36950 ft | 518 kts | 96° |
| 2026-04-29 03:14 | 33.08344 | 41.17917 | 36933 ft | 519 kts | 96° |
| 2026-04-29 03:15 | 33.08100 | 41.26512 | 36954 ft | 518 kts | 98° |
| 2026-04-29 03:15 | 33.07710 | 41.35094 | 36942 ft | 518 kts | 98° |
| 2026-04-29 03:16 | 33.07317 | 41.43673 | 36945 ft | 519 kts | 98° |
| 2026-04-29 03:16 | 33.06954 | 41.52271 | 36944 ft | 520 kts | 98° |
| 2026-04-29 03:17 | 33.06605 | 41.60877 | 36918 ft | 520 kts | 98° |
| 2026-04-29 03:17 | 33.06247 | 41.69501 | 36919 ft | 521 kts | 98° |
| 2026-04-29 03:18 | 33.05871 | 41.78137 | 36690 ft | 522 kts | 98° |
| 2026-04-29 03:18 | 33.05679 | 41.82454 | 36278 ft | 523 kts | 98° |
| 2026-04-29 03:18 | 33.05489 | 41.86794 | 35572 ft | 525 kts | 98° |
| 2026-04-29 03:18 | 33.05295 | 41.91169 | 34640 ft | 533 kts | 98° |
| 2026-04-29 03:19 | 33.05096 | 41.95578 | 34140 ft | 530 kts | 97° |
| 2026-04-29 03:19 | 33.04898 | 41.99956 | 33447 ft | 528 kts | 97° |
| 2026-04-29 03:19 | 33.04702 | 42.04285 | 32509 ft | 520 kts | 97° |
| 2026-04-29 03:19 | 33.04525 | 42.08211 | 31710 ft | 511 kts | 97° |
| 2026-04-29 03:20 | 33.04399 | 42.11034 | 31354 ft | 500 kts | 97° |
| 2026-04-29 03:20 | 33.04153 | 42.16448 | 30570 ft | 492 kts | 96° |
| 2026-04-29 03:20 | 33.03959 | 42.20508 | 29950 ft | 489 kts | 96° |
| 2026-04-29 03:20 | 33.03826 | 42.23232 | 29508 ft | 487 kts | 96° |
| 2026-04-29 03:21 | 33.03631 | 42.27245 | 28939 ft | 482 kts | 96° |
| 2026-04-29 03:21 | 33.03439 | 42.31208 | 28407 ft | 476 kts | 96° |
| 2026-04-29 03:21 | 33.03253 | 42.35119 | 27928 ft | 470 kts | 96° |
| 2026-04-29 03:21 | 33.03084 | 42.38990 | 27438 ft | 465 kts | 96° |
| 2026-04-29 03:22 | 33.02933 | 42.42818 | 26954 ft | 460 kts | 96° |
| 2026-04-29 03:22 | 33.02796 | 42.46601 | 26492 ft | 454 kts | 95° |
| 2026-04-29 03:22 | 33.02662 | 42.50337 | 26042 ft | 449 kts | 96° |
| 2026-04-29 03:22 | 33.02523 | 42.54035 | 25593 ft | 444 kts | 96° |
| 2026-04-29 03:23 | 33.02377 | 42.57692 | 25162 ft | 440 kts | 96° |
| 2026-04-29 03:23 | 33.02228 | 42.61320 | 24740 ft | 436 kts | 96° |
| 2026-04-29 03:23 | 33.02077 | 42.64909 | 24323 ft | 432 kts | 96° |
| 2026-04-29 03:23 | 33.01925 | 42.68473 | 23919 ft | 429 kts | 96° |
| 2026-04-29 03:24 | 33.01771 | 42.72021 | 23493 ft | 427 kts | 96° |
| 2026-04-29 03:24 | 33.01618 | 42.75538 | 23030 ft | 424 kts | 96° |
| 2026-04-29 03:24 | 33.01469 | 42.79027 | 22620 ft | 419 kts | 96° |
| 2026-04-29 03:24 | 33.01322 | 42.82476 | 22197 ft | 415 kts | 96° |
| 2026-04-29 03:25 | 33.01176 | 42.85897 | 21777 ft | 411 kts | 95° |
| 2026-04-29 03:25 | 33.01030 | 42.89282 | 21348 ft | 408 kts | 95° |
| 2026-04-29 03:25 | 33.00884 | 42.92642 | 20898 ft | 405 kts | 95° |
| 2026-04-29 03:25 | 33.00740 | 42.95981 | 20461 ft | 402 kts | 95° |
| 2026-04-29 03:26 | 33.00596 | 42.99288 | 20018 ft | 399 kts | 95° |
| 2026-04-29 03:26 | 33.00451 | 43.02587 | 19568 ft | 397 kts | 94° |
| 2026-04-29 03:26 | 33.00304 | 43.05862 | 19125 ft | 395 kts | 94° |
| 2026-04-29 03:26 | 33.00155 | 43.09124 | 18679 ft | 394 kts | 94° |
| 2026-04-29 03:27 | 33.00007 | 43.12374 | 18229 ft | 393 kts | 94° |
| 2026-04-29 03:27 | 32.99857 | 43.15659 | 17733 ft | 391 kts | 94° |
| 2026-04-29 03:27 | 32.99710 | 43.18875 | 17281 ft | 387 kts | 94° |
| 2026-04-29 03:27 | 32.99565 | 43.22068 | 16835 ft | 384 kts | 94° |
| 2026-04-29 03:28 | 32.99422 | 43.25235 | 16377 ft | 381 kts | 94° |
| 2026-04-29 03:28 | 32.99278 | 43.28374 | 15940 ft | 379 kts | 94° |
| 2026-04-29 03:28 | 32.99134 | 43.31485 | 15597 ft | 373 kts | 94° |
| 2026-04-29 03:28 | 32.98991 | 43.34522 | 15499 ft | 360 kts | 94° |
| 2026-04-29 03:29 | 32.98853 | 43.37460 | 15347 ft | 351 kts | 94° |
| 2026-04-29 03:29 | 32.98719 | 43.40330 | 15205 ft | 343 kts | 94° |
| 2026-04-29 03:29 | 32.98586 | 43.43132 | 15037 ft | 335 kts | 94° |
| 2026-04-29 03:29 | 32.98455 | 43.45864 | 14900 ft | 327 kts | 94° |
| 2026-04-29 03:30 | 32.98327 | 43.48537 | 14758 ft | 319 kts | 94° |
| 2026-04-29 03:30 | 32.98353 | 43.51177 | 14399 ft | 321 kts | 84° |
| 2026-04-29 03:30 | 32.98670 | 43.53787 | 14044 ft | 313 kts | 78° |
| 2026-04-29 03:30 | 32.99109 | 43.56280 | 13767 ft | 304 kts | 76° |
| 2026-04-29 03:31 | 33.00036 | 43.61214 | 13056 ft | 306 kts | 77° |
| 2026-04-29 03:31 | 33.00469 | 43.63695 | 12709 ft | 306 kts | 77° |
| 2026-04-29 03:31 | 33.00879 | 43.66189 | 12375 ft | 307 kts | 78° |
| 2026-04-29 03:32 | 33.01270 | 43.68686 | 12021 ft | 307 kts | 78° |
| 2026-04-29 03:32 | 33.01650 | 43.71188 | 11680 ft | 307 kts | 79° |
| 2026-04-29 03:32 | 33.02027 | 43.73697 | 11333 ft | 307 kts | 79° |
| 2026-04-29 03:32 | 33.02404 | 43.76203 | 10989 ft | 308 kts | 78° |
| 2026-04-29 03:33 | 33.02782 | 43.78714 | 10639 ft | 308 kts | 79° |
| 2026-04-29 03:33 | 33.03159 | 43.81225 | 10289 ft | 308 kts | 78° |
| 2026-04-29 03:33 | 33.03536 | 43.83735 | 9947 ft | 308 kts | 78° |
| 2026-04-29 03:33 | 33.03911 | 43.86245 | 9583 ft | 308 kts | 78° |
| 2026-04-29 03:34 | 33.04288 | 43.88755 | 9225 ft | 307 kts | 78° |
| 2026-04-29 03:34 | 33.04663 | 43.91253 | 8885 ft | 306 kts | 78° |
| 2026-04-29 03:34 | 33.05038 | 43.93745 | 8535 ft | 304 kts | 78° |
| 2026-04-29 03:34 | 33.05409 | 43.96224 | 8201 ft | 303 kts | 78° |
| 2026-04-29 03:35 | 33.05783 | 43.98727 | 7857 ft | 302 kts | 78° |
| 2026-04-29 03:35 | 33.06151 | 44.01190 | 7514 ft | 301 kts | 78° |
| 2026-04-29 03:35 | 33.06517 | 44.03645 | 7175 ft | 300 kts | 78° |
| 2026-04-29 03:35 | 33.06876 | 44.06061 | 6837 ft | 290 kts | 78° |
| 2026-04-29 03:36 | 33.07219 | 44.08390 | 6530 ft | 280 kts | 78° |
| 2026-04-29 03:36 | 33.07550 | 44.10633 | 6224 ft | 270 kts | 77° |
| 2026-04-29 03:36 | 33.07870 | 44.12798 | 5916 ft | 260 kts | 77° |
| 2026-04-29 03:36 | 33.08178 | 44.14880 | 5616 ft | 250 kts | 77° |
| 2026-04-29 03:37 | 33.08475 | 44.16883 | 5349 ft | 240 kts | 77° |
| 2026-04-29 03:37 | 33.08759 | 44.18805 | 5086 ft | 231 kts | 77° |
| 2026-04-29 03:37 | 33.09031 | 44.20656 | 4832 ft | 223 kts | 77° |
| 2026-04-29 03:37 | 33.09294 | 44.22451 | 4603 ft | 214 kts | 77° |
| 2026-04-29 03:38 | 33.09542 | 44.24149 | 4350 ft | 203 kts | 77° |
| 2026-04-29 03:38 | 33.09779 | 44.25762 | 4119 ft | 193 kts | 77° |
| 2026-04-29 03:38 | 33.10008 | 44.27325 | 3903 ft | 189 kts | 77° |
| 2026-04-29 03:38 | 33.10230 | 44.28847 | 3694 ft | 185 kts | 77° |
| 2026-04-29 03:39 | 33.10450 | 44.30343 | 3488 ft | 181 kts | 77° |
| 2026-04-29 03:39 | 33.10669 | 44.31811 | 3285 ft | 178 kts | 75° |
| 2026-04-29 03:39 | 33.11204 | 44.33069 | 3087 ft | 167 kts | 37° |
| 2026-04-29 03:39 | 33.12196 | 44.33639 | 2901 ft | 155 kts | 1° |
| 2026-04-29 03:40 | 33.13215 | 44.33434 | 2731 ft | 148 kts | 329° |
| 2026-04-29 03:40 | 33.14109 | 44.32841 | 2563 ft | 147 kts | 329° |
| 2026-04-29 03:40 | 33.15009 | 44.32252 | 2393 ft | 147 kts | 329° |
| 2026-04-29 03:40 | 33.15901 | 44.31657 | 2211 ft | 147 kts | 329° |
| 2026-04-29 03:41 | 33.16790 | 44.31055 | 2022 ft | 147 kts | 329° |
| 2026-04-29 03:41 | 33.17678 | 44.30450 | 1832 ft | 147 kts | 329° |
| 2026-04-29 03:41 | 33.18567 | 44.29843 | 1640 ft | 147 kts | 329° |
| 2026-04-29 03:41 | 33.19454 | 44.29237 | 1449 ft | 145 kts | 329° |
| 2026-04-29 03:42 | 33.20334 | 44.28635 | 1252 ft | 145 kts | 329° |
| 2026-04-29 03:42 | 33.21219 | 44.28029 | 1060 ft | 145 kts | 329° |
| 2026-04-29 03:42 | 33.22095 | 44.27429 | 875 ft | 145 kts | 329° |
| 2026-04-29 03:42 | 33.22969 | 44.26830 | 687 ft | 145 kts | 329° |
| 2026-04-29 03:43 | 33.23839 | 44.26239 | 476 ft | 142 kts | 329° |
| 2026-04-29 03:43 | 33.24701 | 44.25643 | 299 ft | 144 kts | 329° |
| 2026-04-29 03:43 | 33.25547 | 44.25060 | 149 ft | 132 kts | 329° |
| 2026-04-29 03:43 | 33.26252 | 44.24567 | 140 ft | 96 kts | 331° |
| 2026-04-29 03:44 | 33.26674 | 44.24284 | 140 ft | 31 kts | 323° |
| 2026-04-29 03:44 | 33.26736 | 44.24167 | 141 ft | 10 kts | 320° |
| 2026-04-29 03:44 | 33.26790 | 44.24109 | 141 ft | 12 kts | 307° |
| 2026-04-29 03:44 | 33.26805 | 44.24079 | 141 ft | 1 kts | 300° |
| 2026-04-29 03:45 | 33.26814 | 44.24061 | 141 ft | 4 kts | 300° |
| 2026-04-29 03:45 | 33.26835 | 44.24017 | 140 ft | 12 kts | 299° |
| 2026-04-29 03:45 | 33.26902 | 44.23888 | 140 ft | 21 kts | 309° |
| 2026-04-29 03:45 | 33.27025 | 44.23789 | 140 ft | 21 kts | 330° |
| 2026-04-29 03:46 | 33.27156 | 44.23697 | 140 ft | 23 kts | 329° |
| 2026-04-29 03:46 | 33.27301 | 44.23600 | 139 ft | 20 kts | 330° |
| 2026-04-29 03:46 | 33.27368 | 44.23544 | 139 ft | 8 kts | 302° |
| 2026-04-29 03:46 | 33.27360 | 44.23474 | 139 ft | 11 kts | 241° |
| 2026-04-29 03:47 | 33.27316 | 44.23380 | 139 ft | 15 kts | 240° |
| 2026-04-29 03:47 | 33.27259 | 44.23256 | 139 ft | 19 kts | 242° |
| 2026-04-29 03:47 | 33.27191 | 44.23127 | 140 ft | 10 kts | 236° |
| 2026-04-29 03:47 | 33.27157 | 44.23055 | 139 ft | 10 kts | 240° |
| 2026-04-29 03:48 | 33.27126 | 44.23021 | 139 ft | 4 kts | 175° |
| 2026-04-29 03:48 | 33.27099 | 44.23032 | 139 ft | 4 kts | 160° |
| 2026-04-29 03:48 | 33.27068 | 44.23047 | 139 ft | 5 kts | 159° |
| 2026-04-29 03:48 | 33.27049 | 44.23055 | 139 ft | 1 kts | 160° |
| 2026-04-29 03:49 | 33.27038 | 44.23059 | 139 ft | 0 kts | 160° |